sensor_id;sensor_type;location;lat;lon;timestamp;P1;durP1;ratioP1;P2;durP2;ratioP2
32872;SDS011;19224;52.462;16.898;2024-02-14T00:00:24;36.90;;;16.52;;
32872;SDS011;19224;52.462;16.898;2024-02-14T00:02:57;31.52;;;16.57;;
32872;SDS011;19224;52.462;16.898;2024-02-14T00:05:27;33.28;;;15.78;;
32872;SDS011;19224;52.462;16.898;2024-02-14T00:07:59;35.20;;;16.37;;
32872;SDS011;19224;52.462;16.898;2024-02-14T00:10:35;34.67;;;16.67;;
32872;SDS011;19224;52.462;16.898;2024-02-14T00:13:05;35.17;;;16.37;;
32872;SDS011;19224;52.462;16.898;2024-02-14T00:15:37;34.15;;;17.37;;
32872;SDS011;19224;52.462;16.898;2024-02-14T00:18:07;37.93;;;16.65;;
32872;SDS011;19224;52.462;16.898;2024-02-14T00:20:37;32.33;;;16.02;;
32872;SDS011;19224;52.462;16.898;2024-02-14T00:23:09;34.55;;;16.93;;
32872;SDS011;19224;52.462;16.898;2024-02-14T00:25:39;33.85;;;16.77;;
32872;SDS011;19224;52.462;16.898;2024-02-14T00:28:10;32.40;;;15.58;;
32872;SDS011;19224;52.462;16.898;2024-02-14T00:30:40;38.33;;;17.02;;
32872;SDS011;19224;52.462;16.898;2024-02-14T00:33:16;33.78;;;15.90;;
32872;SDS011;19224;52.462;16.898;2024-02-14T00:35:48;37.03;;;16.67;;
32872;SDS011;19224;52.462;16.898;2024-02-14T00:38:20;32.10;;;16.32;;
32872;SDS011;19224;52.462;16.898;2024-02-14T00:40:51;36.98;;;16.95;;
32872;SDS011;19224;52.462;16.898;2024-02-14T00:43:21;34.60;;;16.17;;
32872;SDS011;19224;52.462;16.898;2024-02-14T00:45:52;34.92;;;17.12;;
32872;SDS011;19224;52.462;16.898;2024-02-14T00:48:23;36.80;;;17.98;;
32872;SDS011;19224;52.462;16.898;2024-02-14T00:50:54;35.00;;;17.52;;
32872;SDS011;19224;52.462;16.898;2024-02-14T00:53:24;37.75;;;16.45;;
32872;SDS011;19224;52.462;16.898;2024-02-14T00:55:57;33.90;;;16.97;;
32872;SDS011;19224;52.462;16.898;2024-02-14T00:58:27;35.92;;;16.55;;
32872;SDS011;19224;52.462;16.898;2024-02-14T01:00:57;32.75;;;16.10;;
32872;SDS011;19224;52.462;16.898;2024-02-14T01:03:28;34.73;;;16.67;;
32872;SDS011;19224;52.462;16.898;2024-02-14T01:05:58;37.45;;;17.37;;
32872;SDS011;19224;52.462;16.898;2024-02-14T01:08:29;38.65;;;17.92;;
32872;SDS011;19224;52.462;16.898;2024-02-14T01:11:01;41.50;;;19.67;;
32872;SDS011;19224;52.462;16.898;2024-02-14T01:13:32;45.70;;;18.70;;
32872;SDS011;19224;52.462;16.898;2024-02-14T01:16:03;41.20;;;18.73;;
32872;SDS011;19224;52.462;16.898;2024-02-14T01:18:35;40.88;;;17.52;;
32872;SDS011;19224;52.462;16.898;2024-02-14T01:21:05;35.40;;;17.73;;
32872;SDS011;19224;52.462;16.898;2024-02-14T01:23:37;33.02;;;16.75;;
32872;SDS011;19224;52.462;16.898;2024-02-14T01:26:07;40.95;;;17.40;;
32872;SDS011;19224;52.462;16.898;2024-02-14T01:28:38;35.48;;;17.20;;
32872;SDS011;19224;52.462;16.898;2024-02-14T01:31:10;36.95;;;17.60;;
32872;SDS011;19224;52.462;16.898;2024-02-14T01:33:41;37.55;;;17.67;;
32872;SDS011;19224;52.462;16.898;2024-02-14T01:36:13;33.38;;;17.55;;
32872;SDS011;19224;52.462;16.898;2024-02-14T01:38:44;40.48;;;16.35;;
32872;SDS011;19224;52.462;16.898;2024-02-14T01:41:14;38.20;;;17.12;;
32872;SDS011;19224;52.462;16.898;2024-02-14T01:43:44;36.03;;;16.45;;
32872;SDS011;19224;52.462;16.898;2024-02-14T01:46:15;34.50;;;16.70;;
32872;SDS011;19224;52.462;16.898;2024-02-14T01:48:46;34.70;;;17.02;;
32872;SDS011;19224;52.462;16.898;2024-02-14T01:51:17;31.90;;;16.35;;
32872;SDS011;19224;52.462;16.898;2024-02-14T01:53:52;39.98;;;17.23;;
32872;SDS011;19224;52.462;16.898;2024-02-14T01:56:24;33.50;;;16.87;;
32872;SDS011;19224;52.462;16.898;2024-02-14T01:58:55;35.65;;;16.85;;
32872;SDS011;19224;52.462;16.898;2024-02-14T02:01:27;41.25;;;17.55;;
32872;SDS011;19224;52.462;16.898;2024-02-14T02:03:57;35.35;;;16.90;;
32872;SDS011;19224;52.462;16.898;2024-02-14T02:06:28;35.08;;;17.25;;
32872;SDS011;19224;52.462;16.898;2024-02-14T02:09:00;35.28;;;16.75;;
32872;SDS011;19224;52.462;16.898;2024-02-14T02:11:31;37.05;;;18.75;;
32872;SDS011;19224;52.462;16.898;2024-02-14T02:14:21;43.50;;;19.82;;
32872;SDS011;19224;52.462;16.898;2024-02-14T02:16:51;40.40;;;18.62;;
32872;SDS011;19224;52.462;16.898;2024-02-14T02:19:21;40.05;;;19.20;;
32872;SDS011;19224;52.462;16.898;2024-02-14T02:21:52;41.53;;;19.77;;
32872;SDS011;19224;52.462;16.898;2024-02-14T02:24:22;43.25;;;19.45;;
32872;SDS011;19224;52.462;16.898;2024-02-14T02:26:56;42.25;;;20.02;;
32872;SDS011;19224;52.462;16.898;2024-02-14T02:29:27;46.65;;;21.33;;
32872;SDS011;19224;52.462;16.898;2024-02-14T02:31:58;46.45;;;20.65;;
32872;SDS011;19224;52.462;16.898;2024-02-14T02:34:28;48.17;;;20.95;;
32872;SDS011;19224;52.462;16.898;2024-02-14T02:36:58;48.38;;;21.07;;
32872;SDS011;19224;52.462;16.898;2024-02-14T02:39:29;49.25;;;21.30;;
32872;SDS011;19224;52.462;16.898;2024-02-14T02:41:59;44.65;;;20.52;;
32872;SDS011;19224;52.462;16.898;2024-02-14T02:44:31;45.55;;;20.30;;
32872;SDS011;19224;52.462;16.898;2024-02-14T02:47:02;42.35;;;20.72;;
32872;SDS011;19224;52.462;16.898;2024-02-14T02:49:32;47.30;;;21.27;;
32872;SDS011;19224;52.462;16.898;2024-02-14T02:52:05;41.63;;;21.30;;
32872;SDS011;19224;52.462;16.898;2024-02-14T02:54:35;42.50;;;21.55;;
32872;SDS011;19224;52.462;16.898;2024-02-14T02:57:10;48.42;;;21.73;;
32872;SDS011;19224;52.462;16.898;2024-02-14T02:59:42;51.90;;;22.25;;
32872;SDS011;19224;52.462;16.898;2024-02-14T03:02:14;47.98;;;22.15;;
32872;SDS011;19224;52.462;16.898;2024-02-14T03:04:46;48.58;;;21.90;;
32872;SDS011;19224;52.462;16.898;2024-02-14T03:07:19;46.02;;;22.20;;
32872;SDS011;19224;52.462;16.898;2024-02-14T03:09:51;42.98;;;21.80;;
32872;SDS011;19224;52.462;16.898;2024-02-14T03:12:21;42.75;;;20.85;;
32872;SDS011;19224;52.462;16.898;2024-02-14T03:14:53;38.65;;;20.45;;
32872;SDS011;19224;52.462;16.898;2024-02-14T03:17:24;43.30;;;20.95;;
32872;SDS011;19224;52.462;16.898;2024-02-14T03:19:57;42.53;;;20.45;;
32872;SDS011;19224;52.462;16.898;2024-02-14T03:22:27;40.17;;;19.62;;
32872;SDS011;19224;52.462;16.898;2024-02-14T03:24:58;46.02;;;20.88;;
32872;SDS011;19224;52.462;16.898;2024-02-14T03:27:28;44.35;;;21.20;;
32872;SDS011;19224;52.462;16.898;2024-02-14T03:30:00;39.98;;;20.00;;
32872;SDS011;19224;52.462;16.898;2024-02-14T03:32:31;41.53;;;20.55;;
32872;SDS011;19224;52.462;16.898;2024-02-14T03:35:01;43.48;;;22.70;;
32872;SDS011;19224;52.462;16.898;2024-02-14T03:37:32;46.30;;;20.50;;
32872;SDS011;19224;52.462;16.898;2024-02-14T03:40:02;44.48;;;21.42;;
32872;SDS011;19224;52.462;16.898;2024-02-14T03:42:34;40.35;;;20.75;;
32872;SDS011;19224;52.462;16.898;2024-02-14T03:45:09;39.75;;;20.60;;
32872;SDS011;19224;52.462;16.898;2024-02-14T03:47:40;42.45;;;20.88;;
32872;SDS011;19224;52.462;16.898;2024-02-14T03:50:10;41.08;;;20.75;;
32872;SDS011;19224;52.462;16.898;2024-02-14T03:52:40;39.55;;;19.45;;
32872;SDS011;19224;52.462;16.898;2024-02-14T03:55:11;38.23;;;19.25;;
32872;SDS011;19224;52.462;16.898;2024-02-14T03:57:44;41.10;;;20.35;;
32872;SDS011;19224;52.462;16.898;2024-02-14T04:00:16;45.35;;;20.43;;
32872;SDS011;19224;52.462;16.898;2024-02-14T04:02:47;38.28;;;19.80;;
32872;SDS011;19224;52.462;16.898;2024-02-14T04:05:20;39.23;;;19.20;;
32872;SDS011;19224;52.462;16.898;2024-02-14T04:07:50;43.40;;;20.72;;
32872;SDS011;19224;52.462;16.898;2024-02-14T04:10:22;43.83;;;19.10;;
32872;SDS011;19224;52.462;16.898;2024-02-14T04:12:52;44.00;;;19.77;;
32872;SDS011;19224;52.462;16.898;2024-02-14T04:15:22;37.08;;;19.30;;
32872;SDS011;19224;52.462;16.898;2024-02-14T04:17:52;38.65;;;19.05;;
32872;SDS011;19224;52.462;16.898;2024-02-14T04:20:23;39.15;;;19.17;;
32872;SDS011;19224;52.462;16.898;2024-02-14T04:22:55;35.85;;;18.85;;
32872;SDS011;19224;52.462;16.898;2024-02-14T04:25:28;51.90;;;20.00;;
32872;SDS011;19224;52.462;16.898;2024-02-14T04:27:58;39.13;;;18.98;;
32872;SDS011;19224;52.462;16.898;2024-02-14T04:30:32;41.13;;;18.55;;
32872;SDS011;19224;52.462;16.898;2024-02-14T04:33:04;34.33;;;17.50;;
32872;SDS011;19224;52.462;16.898;2024-02-14T04:35:35;36.38;;;18.37;;
32872;SDS011;19224;52.462;16.898;2024-02-14T04:38:06;35.52;;;16.73;;
32872;SDS011;19224;52.462;16.898;2024-02-14T04:40:36;41.83;;;17.32;;
32872;SDS011;19224;52.462;16.898;2024-02-14T04:43:07;40.67;;;18.05;;
32872;SDS011;19224;52.462;16.898;2024-02-14T04:45:39;32.20;;;17.32;;
32872;SDS011;19224;52.462;16.898;2024-02-14T04:48:09;36.25;;;16.73;;
32872;SDS011;19224;52.462;16.898;2024-02-14T04:50:39;31.80;;;16.87;;
32872;SDS011;19224;52.462;16.898;2024-02-14T04:53:14;35.35;;;16.50;;
32872;SDS011;19224;52.462;16.898;2024-02-14T04:55:45;32.60;;;16.37;;
32872;SDS011;19224;52.462;16.898;2024-02-14T04:58:15;32.73;;;16.87;;
32872;SDS011;19224;52.462;16.898;2024-02-14T05:00:46;32.17;;;16.93;;
32872;SDS011;19224;52.462;16.898;2024-02-14T05:03:17;38.88;;;17.50;;
32872;SDS011;19224;52.462;16.898;2024-02-14T05:05:47;29.07;;;15.90;;
32872;SDS011;19224;52.462;16.898;2024-02-14T05:08:18;35.17;;;16.75;;
32872;SDS011;19224;52.462;16.898;2024-02-14T05:10:48;37.63;;;17.60;;
32872;SDS011;19224;52.462;16.898;2024-02-14T05:13:19;32.80;;;17.67;;
32872;SDS011;19224;52.462;16.898;2024-02-14T05:15:49;31.12;;;16.45;;
32872;SDS011;19224;52.462;16.898;2024-02-14T05:18:19;40.43;;;17.95;;
32872;SDS011;19224;52.462;16.898;2024-02-14T05:20:50;37.17;;;18.57;;
32872;SDS011;19224;52.462;16.898;2024-02-14T05:23:21;35.73;;;17.80;;
32872;SDS011;19224;52.462;16.898;2024-02-14T05:25:51;40.00;;;18.10;;
32872;SDS011;19224;52.462;16.898;2024-02-14T05:28:23;31.35;;;17.45;;
32872;SDS011;19224;52.462;16.898;2024-02-14T05:30:54;38.20;;;18.37;;
32872;SDS011;19224;52.462;16.898;2024-02-14T05:33:30;39.67;;;19.10;;
32872;SDS011;19224;52.462;16.898;2024-02-14T05:36:01;39.05;;;17.95;;
32872;SDS011;19224;52.462;16.898;2024-02-14T05:38:32;32.93;;;18.40;;
32872;SDS011;19224;52.462;16.898;2024-02-14T05:41:03;38.13;;;18.82;;
32872;SDS011;19224;52.462;16.898;2024-02-14T05:43:35;39.20;;;18.23;;
32872;SDS011;19224;52.462;16.898;2024-02-14T05:46:09;36.23;;;18.80;;
32872;SDS011;19224;52.462;16.898;2024-02-14T05:48:40;30.27;;;16.97;;
32872;SDS011;19224;52.462;16.898;2024-02-14T05:51:10;33.75;;;16.25;;
32872;SDS011;19224;52.462;16.898;2024-02-14T05:53:40;31.00;;;16.10;;
32872;SDS011;19224;52.462;16.898;2024-02-14T05:56:11;33.42;;;16.50;;
32872;SDS011;19224;52.462;16.898;2024-02-14T05:58:41;30.50;;;15.00;;
32872;SDS011;19224;52.462;16.898;2024-02-14T06:01:12;25.35;;;14.70;;
32872;SDS011;19224;52.462;16.898;2024-02-14T06:03:42;28.52;;;14.68;;
32872;SDS011;19224;52.462;16.898;2024-02-14T06:06:13;30.97;;;14.83;;
32872;SDS011;19224;52.462;16.898;2024-02-14T06:08:43;34.90;;;17.40;;
32872;SDS011;19224;52.462;16.898;2024-02-14T06:11:13;34.18;;;16.70;;
32872;SDS011;19224;52.462;16.898;2024-02-14T06:13:44;27.02;;;15.10;;
32872;SDS011;19224;52.462;16.898;2024-02-14T06:16:14;30.20;;;15.45;;
32872;SDS011;19224;52.462;16.898;2024-02-14T06:18:45;32.78;;;15.55;;
32872;SDS011;19224;52.462;16.898;2024-02-14T06:21:15;31.12;;;14.78;;
32872;SDS011;19224;52.462;16.898;2024-02-14T06:23:47;31.50;;;16.15;;
32872;SDS011;19224;52.462;16.898;2024-02-14T06:26:26;32.20;;;16.85;;
32872;SDS011;19224;52.462;16.898;2024-02-14T06:28:55;33.25;;;16.55;;
32872;SDS011;19224;52.462;16.898;2024-02-14T06:31:28;33.45;;;15.38;;
32872;SDS011;19224;52.462;16.898;2024-02-14T06:33:59;30.27;;;15.53;;
32872;SDS011;19224;52.462;16.898;2024-02-14T06:36:29;32.15;;;15.48;;
32872;SDS011;19224;52.462;16.898;2024-02-14T06:38:59;26.23;;;15.78;;
32872;SDS011;19224;52.462;16.898;2024-02-14T06:41:32;29.98;;;15.18;;
32872;SDS011;19224;52.462;16.898;2024-02-14T06:44:03;29.67;;;15.20;;
32872;SDS011;19224;52.462;16.898;2024-02-14T06:46:34;29.02;;;15.18;;
32872;SDS011;19224;52.462;16.898;2024-02-14T06:49:06;31.75;;;17.40;;
32872;SDS011;19224;52.462;16.898;2024-02-14T06:51:37;34.90;;;16.62;;
32872;SDS011;19224;52.462;16.898;2024-02-14T06:54:07;34.70;;;16.80;;
32872;SDS011;19224;52.462;16.898;2024-02-14T06:56:37;27.73;;;16.27;;
32872;SDS011;19224;52.462;16.898;2024-02-14T06:59:07;31.37;;;15.98;;
32872;SDS011;19224;52.462;16.898;2024-02-14T07:01:38;28.83;;;14.93;;
32872;SDS011;19224;52.462;16.898;2024-02-14T07:04:08;31.57;;;15.45;;
32872;SDS011;19224;52.462;16.898;2024-02-14T07:06:38;30.45;;;15.05;;
32872;SDS011;19224;52.462;16.898;2024-02-14T07:09:09;27.87;;;15.50;;
32872;SDS011;19224;52.462;16.898;2024-02-14T07:11:39;27.67;;;14.78;;
32872;SDS011;19224;52.462;16.898;2024-02-14T07:14:10;32.70;;;15.30;;
32872;SDS011;19224;52.462;16.898;2024-02-14T07:16:41;29.85;;;15.70;;
32872;SDS011;19224;52.462;16.898;2024-02-14T07:19:12;28.60;;;16.05;;
32872;SDS011;19224;52.462;16.898;2024-02-14T07:21:42;30.43;;;16.12;;
32872;SDS011;19224;52.462;16.898;2024-02-14T07:24:12;33.58;;;17.05;;
32872;SDS011;19224;52.462;16.898;2024-02-14T07:26:43;40.08;;;17.17;;
32872;SDS011;19224;52.462;16.898;2024-02-14T07:29:20;32.25;;;16.17;;
32872;SDS011;19224;52.462;16.898;2024-02-14T07:31:46;31.48;;;16.25;;
32872;SDS011;19224;52.462;16.898;2024-02-14T07:34:17;33.23;;;16.93;;
32872;SDS011;19224;52.462;16.898;2024-02-14T07:36:47;31.80;;;17.27;;
32872;SDS011;19224;52.462;16.898;2024-02-14T07:39:17;30.55;;;16.75;;
32872;SDS011;19224;52.462;16.898;2024-02-14T07:41:52;33.02;;;16.57;;
32872;SDS011;19224;52.462;16.898;2024-02-14T07:44:25;35.13;;;16.70;;
32872;SDS011;19224;52.462;16.898;2024-02-14T07:46:56;32.67;;;16.00;;
32872;SDS011;19224;52.462;16.898;2024-02-14T07:49:26;34.23;;;16.97;;
32872;SDS011;19224;52.462;16.898;2024-02-14T07:51:58;33.15;;;15.75;;
32872;SDS011;19224;52.462;16.898;2024-02-14T07:54:28;28.42;;;15.58;;
32872;SDS011;19224;52.462;16.898;2024-02-14T07:57:06;27.05;;;14.87;;
32872;SDS011;19224;52.462;16.898;2024-02-14T07:59:38;27.55;;;15.35;;
32872;SDS011;19224;52.462;16.898;2024-02-14T08:02:09;29.30;;;15.78;;
32872;SDS011;19224;52.462;16.898;2024-02-14T08:04:39;29.55;;;15.28;;
32872;SDS011;19224;52.462;16.898;2024-02-14T08:07:12;33.25;;;15.48;;
32872;SDS011;19224;52.462;16.898;2024-02-14T08:09:43;32.98;;;16.17;;
32872;SDS011;19224;52.462;16.898;2024-02-14T08:12:14;27.65;;;15.53;;
32872;SDS011;19224;52.462;16.898;2024-02-14T08:14:45;28.92;;;15.08;;
32872;SDS011;19224;52.462;16.898;2024-02-14T08:17:15;28.17;;;15.13;;
32872;SDS011;19224;52.462;16.898;2024-02-14T08:19:55;31.40;;;15.98;;
32872;SDS011;19224;52.462;16.898;2024-02-14T08:22:23;51.70;;;25.92;;
32872;SDS011;19224;52.462;16.898;2024-02-14T08:24:54;39.73;;;19.52;;
32872;SDS011;19224;52.462;16.898;2024-02-14T08:27:27;34.40;;;17.12;;
32872;SDS011;19224;52.462;16.898;2024-02-14T08:30:03;27.42;;;14.85;;
32872;SDS011;19224;52.462;16.898;2024-02-14T08:32:34;35.68;;;14.98;;
32872;SDS011;19224;52.462;16.898;2024-02-14T08:35:10;29.35;;;14.83;;
32872;SDS011;19224;52.462;16.898;2024-02-14T08:37:41;28.25;;;14.78;;
32872;SDS011;19224;52.462;16.898;2024-02-14T08:40:11;34.80;;;16.17;;
32872;SDS011;19224;52.462;16.898;2024-02-14T08:42:43;30.82;;;15.93;;
32872;SDS011;19224;52.462;16.898;2024-02-14T08:45:17;28.70;;;14.38;;
32872;SDS011;19224;52.462;16.898;2024-02-14T08:47:53;27.98;;;13.65;;
32872;SDS011;19224;52.462;16.898;2024-02-14T08:50:23;26.93;;;13.25;;
32872;SDS011;19224;52.462;16.898;2024-02-14T08:52:53;24.92;;;13.50;;
32872;SDS011;19224;52.462;16.898;2024-02-14T08:55:23;27.95;;;14.15;;
32872;SDS011;19224;52.462;16.898;2024-02-14T08:57:54;32.50;;;14.00;;
32872;SDS011;19224;52.462;16.898;2024-02-14T09:00:27;27.02;;;13.95;;
32872;SDS011;19224;52.462;16.898;2024-02-14T09:02:58;33.50;;;13.38;;
32872;SDS011;19224;52.462;16.898;2024-02-14T09:05:28;24.23;;;13.13;;
32872;SDS011;19224;52.462;16.898;2024-02-14T09:07:59;25.35;;;13.30;;
32872;SDS011;19224;52.462;16.898;2024-02-14T09:10:29;26.95;;;13.62;;
32872;SDS011;19224;52.462;16.898;2024-02-14T09:13:01;24.18;;;13.45;;
32872;SDS011;19224;52.462;16.898;2024-02-14T09:15:35;33.63;;;14.40;;
32872;SDS011;19224;52.462;16.898;2024-02-14T09:18:08;26.65;;;13.32;;
32872;SDS011;19224;52.462;16.898;2024-02-14T09:20:38;30.05;;;13.60;;
32872;SDS011;19224;52.462;16.898;2024-02-14T09:23:09;24.18;;;13.00;;
32872;SDS011;19224;52.462;16.898;2024-02-14T09:25:41;28.02;;;13.35;;
32872;SDS011;19224;52.462;16.898;2024-02-14T09:28:19;24.37;;;12.53;;
32872;SDS011;19224;52.462;16.898;2024-02-14T09:30:54;27.45;;;12.50;;
32872;SDS011;19224;52.462;16.898;2024-02-14T09:33:25;22.05;;;12.40;;
32872;SDS011;19224;52.462;16.898;2024-02-14T09:35:55;25.05;;;13.00;;
32872;SDS011;19224;52.462;16.898;2024-02-14T09:38:25;20.95;;;11.12;;
32872;SDS011;19224;52.462;16.898;2024-02-14T09:40:58;25.55;;;12.40;;
32872;SDS011;19224;52.462;16.898;2024-02-14T09:43:50;24.30;;;13.08;;
32872;SDS011;19224;52.462;16.898;2024-02-14T09:46:24;25.65;;;13.20;;
32872;SDS011;19224;52.462;16.898;2024-02-14T09:48:54;25.57;;;12.30;;
32872;SDS011;19224;52.462;16.898;2024-02-14T09:51:28;23.27;;;12.88;;
32872;SDS011;19224;52.462;16.898;2024-02-14T09:54:00;20.75;;;11.80;;
32872;SDS011;19224;52.462;16.898;2024-02-14T09:56:31;25.70;;;12.37;;
32872;SDS011;19224;52.462;16.898;2024-02-14T09:59:01;22.70;;;12.10;;
32872;SDS011;19224;52.462;16.898;2024-02-14T10:01:34;24.23;;;12.33;;
32872;SDS011;19224;52.462;16.898;2024-02-14T10:04:05;26.12;;;13.18;;
32872;SDS011;19224;52.462;16.898;2024-02-14T10:06:36;28.92;;;13.58;;
32872;SDS011;19224;52.462;16.898;2024-02-14T10:09:08;28.07;;;12.50;;
32872;SDS011;19224;52.462;16.898;2024-02-14T10:11:39;26.97;;;12.23;;
32872;SDS011;19224;52.462;16.898;2024-02-14T10:14:10;22.75;;;12.60;;
32872;SDS011;19224;52.462;16.898;2024-02-14T10:16:41;21.65;;;12.05;;
32872;SDS011;19224;52.462;16.898;2024-02-14T10:19:16;29.48;;;13.35;;
32872;SDS011;19224;52.462;16.898;2024-02-14T10:21:57;22.87;;;12.65;;
32872;SDS011;19224;52.462;16.898;2024-02-14T10:24:30;27.42;;;12.70;;
32872;SDS011;19224;52.462;16.898;2024-02-14T10:27:01;24.45;;;12.33;;
32872;SDS011;19224;52.462;16.898;2024-02-14T10:29:33;23.87;;;13.45;;
32872;SDS011;19224;52.462;16.898;2024-02-14T10:32:03;22.00;;;13.05;;
32872;SDS011;19224;52.462;16.898;2024-02-14T10:34:34;24.55;;;12.65;;
32872;SDS011;19224;52.462;16.898;2024-02-14T10:37:07;25.95;;;11.83;;
32872;SDS011;19224;52.462;16.898;2024-02-14T10:39:38;32.78;;;12.93;;
32872;SDS011;19224;52.462;16.898;2024-02-14T10:42:11;21.93;;;12.65;;
32872;SDS011;19224;52.462;16.898;2024-02-14T10:44:43;27.20;;;12.40;;
32872;SDS011;19224;52.462;16.898;2024-02-14T10:47:19;19.87;;;11.53;;
32872;SDS011;19224;52.462;16.898;2024-02-14T10:49:52;26.10;;;11.57;;
32872;SDS011;19224;52.462;16.898;2024-02-14T10:52:25;25.62;;;11.30;;
32872;SDS011;19224;52.462;16.898;2024-02-14T10:55:02;20.55;;;11.30;;
32872;SDS011;19224;52.462;16.898;2024-02-14T10:57:33;24.52;;;11.85;;
32872;SDS011;19224;52.462;16.898;2024-02-14T11:00:05;19.40;;;11.30;;
32872;SDS011;19224;52.462;16.898;2024-02-14T11:02:37;21.17;;;11.00;;
32872;SDS011;19224;52.462;16.898;2024-02-14T11:05:12;22.85;;;11.78;;
32872;SDS011;19224;52.462;16.898;2024-02-14T11:07:44;21.23;;;11.45;;
32872;SDS011;19224;52.462;16.898;2024-02-14T11:10:16;23.87;;;11.88;;
32872;SDS011;19224;52.462;16.898;2024-02-14T11:12:48;19.92;;;11.80;;
32872;SDS011;19224;52.462;16.898;2024-02-14T11:15:19;23.52;;;11.63;;
32872;SDS011;19224;52.462;16.898;2024-02-14T11:18:03;21.27;;;12.07;;
32872;SDS011;19224;52.462;16.898;2024-02-14T11:20:36;21.10;;;11.12;;
32872;SDS011;19224;52.462;16.898;2024-02-14T11:23:10;30.37;;;12.25;;
32872;SDS011;19224;52.462;16.898;2024-02-14T11:25:49;25.88;;;12.80;;
32872;SDS011;19224;52.462;16.898;2024-02-14T11:28:19;25.55;;;12.65;;
32872;SDS011;19224;52.462;16.898;2024-02-14T11:31:01;26.70;;;11.40;;
32872;SDS011;19224;52.462;16.898;2024-02-14T11:33:35;23.38;;;12.93;;
32872;SDS011;19224;52.462;16.898;2024-02-14T11:36:22;24.82;;;11.83;;
32872;SDS011;19224;52.462;16.898;2024-02-14T11:38:49;25.30;;;12.13;;
32872;SDS011;19224;52.462;16.898;2024-02-14T11:41:21;27.20;;;12.35;;
32872;SDS011;19224;52.462;16.898;2024-02-14T11:43:51;24.00;;;12.18;;
32872;SDS011;19224;52.462;16.898;2024-02-14T11:46:22;23.40;;;12.00;;
32872;SDS011;19224;52.462;16.898;2024-02-14T11:48:54;19.95;;;11.40;;
32872;SDS011;19224;52.462;16.898;2024-02-14T11:51:36;24.05;;;11.78;;
32872;SDS011;19224;52.462;16.898;2024-02-14T11:54:09;22.00;;;12.55;;
32872;SDS011;19224;52.462;16.898;2024-02-14T11:56:47;22.07;;;10.43;;
32872;SDS011;19224;52.462;16.898;2024-02-14T11:59:17;20.70;;;10.70;;
32872;SDS011;19224;52.462;16.898;2024-02-14T12:01:57;19.75;;;10.88;;
32872;SDS011;19224;52.462;16.898;2024-02-14T12:04:30;20.82;;;10.20;;
32872;SDS011;19224;52.462;16.898;2024-02-14T12:07:04;23.85;;;9.75;;
32872;SDS011;19224;52.462;16.898;2024-02-14T12:09:35;16.52;;;9.45;;
32872;SDS011;19224;52.462;16.898;2024-02-14T12:12:06;14.93;;;8.43;;
32872;SDS011;19224;52.462;16.898;2024-02-14T12:14:37;17.77;;;8.98;;
32872;SDS011;19224;52.462;16.898;2024-02-14T12:17:12;15.95;;;8.68;;
32872;SDS011;19224;52.462;16.898;2024-02-14T12:19:44;16.48;;;8.88;;
32872;SDS011;19224;52.462;16.898;2024-02-14T12:22:16;13.80;;;7.87;;
32872;SDS011;19224;52.462;16.898;2024-02-14T12:24:47;12.28;;;7.78;;
32872;SDS011;19224;52.462;16.898;2024-02-14T12:27:21;13.60;;;8.08;;
32872;SDS011;19224;52.462;16.898;2024-02-14T12:30:05;17.87;;;8.73;;
32872;SDS011;19224;52.462;16.898;2024-02-14T12:32:37;17.27;;;8.33;;
32872;SDS011;19224;52.462;16.898;2024-02-14T12:35:12;19.73;;;8.48;;
32872;SDS011;19224;52.462;16.898;2024-02-14T12:37:44;17.40;;;8.48;;
32872;SDS011;19224;52.462;16.898;2024-02-14T12:40:14;16.17;;;8.55;;
32872;SDS011;19224;52.462;16.898;2024-02-14T12:42:49;15.10;;;8.60;;
32872;SDS011;19224;52.462;16.898;2024-02-14T12:45:19;18.27;;;10.10;;
32872;SDS011;19224;52.462;16.898;2024-02-14T12:47:52;17.55;;;9.05;;
32872;SDS011;19224;52.462;16.898;2024-02-14T12:50:23;13.38;;;8.63;;
32872;SDS011;19224;52.462;16.898;2024-02-14T12:52:53;15.35;;;8.88;;
32872;SDS011;19224;52.462;16.898;2024-02-14T12:55:23;20.82;;;8.85;;
32872;SDS011;19224;52.462;16.898;2024-02-14T12:57:56;17.37;;;8.78;;
32872;SDS011;19224;52.462;16.898;2024-02-14T13:00:27;16.93;;;9.60;;
32872;SDS011;19224;52.462;16.898;2024-02-14T13:02:59;15.78;;;8.93;;
32872;SDS011;19224;52.462;16.898;2024-02-14T13:05:33;18.30;;;9.95;;
32872;SDS011;19224;52.462;16.898;2024-02-14T13:08:04;21.82;;;10.55;;
32872;SDS011;19224;52.462;16.898;2024-02-14T13:10:36;17.95;;;9.65;;
32872;SDS011;19224;52.462;16.898;2024-02-14T13:13:07;18.17;;;9.88;;
32872;SDS011;19224;52.462;16.898;2024-02-14T13:15:37;21.37;;;10.48;;
32872;SDS011;19224;52.462;16.898;2024-02-14T13:18:08;18.60;;;9.93;;
32872;SDS011;19224;52.462;16.898;2024-02-14T13:20:39;17.95;;;10.10;;
32872;SDS011;19224;52.462;16.898;2024-02-14T13:23:11;17.73;;;9.78;;
32872;SDS011;19224;52.462;16.898;2024-02-14T13:25:41;23.20;;;10.50;;
32872;SDS011;19224;52.462;16.898;2024-02-14T13:28:12;19.82;;;10.55;;
32872;SDS011;19224;52.462;16.898;2024-02-14T13:30:42;17.35;;;10.25;;
32872;SDS011;19224;52.462;16.898;2024-02-14T13:33:14;20.57;;;10.55;;
32872;SDS011;19224;52.462;16.898;2024-02-14T13:35:44;20.85;;;10.58;;
32872;SDS011;19224;52.462;16.898;2024-02-14T13:38:15;19.12;;;10.05;;
32872;SDS011;19224;52.462;16.898;2024-02-14T13:40:45;18.65;;;10.08;;
32872;SDS011;19224;52.462;16.898;2024-02-14T13:43:16;15.43;;;9.65;;
32872;SDS011;19224;52.462;16.898;2024-02-14T13:45:47;18.48;;;10.60;;
32872;SDS011;19224;52.462;16.898;2024-02-14T13:48:20;20.52;;;10.48;;
32872;SDS011;19224;52.462;16.898;2024-02-14T13:50:50;19.50;;;10.03;;
32872;SDS011;19224;52.462;16.898;2024-02-14T13:53:21;18.00;;;10.18;;
32872;SDS011;19224;52.462;16.898;2024-02-14T13:55:51;17.12;;;9.68;;
32872;SDS011;19224;52.462;16.898;2024-02-14T13:58:21;18.75;;;10.30;;
32872;SDS011;19224;52.462;16.898;2024-02-14T14:00:52;17.57;;;9.95;;
32872;SDS011;19224;52.462;16.898;2024-02-14T14:03:28;19.87;;;10.58;;
32872;SDS011;19224;52.462;16.898;2024-02-14T14:06:02;18.77;;;9.98;;
32872;SDS011;19224;52.462;16.898;2024-02-14T14:08:34;16.65;;;10.38;;
32872;SDS011;19224;52.462;16.898;2024-02-14T14:11:10;19.30;;;11.25;;
32872;SDS011;19224;52.462;16.898;2024-02-14T14:13:40;23.92;;;11.40;;
32872;SDS011;19224;52.462;16.898;2024-02-14T14:16:10;19.20;;;10.95;;
32872;SDS011;19224;52.462;16.898;2024-02-14T14:18:40;20.15;;;12.10;;
32872;SDS011;19224;52.462;16.898;2024-02-14T14:21:11;20.17;;;11.48;;
32872;SDS011;19224;52.462;16.898;2024-02-14T14:23:41;17.92;;;11.30;;
32872;SDS011;19224;52.462;16.898;2024-02-14T14:26:17;27.42;;;12.25;;
32872;SDS011;19224;52.462;16.898;2024-02-14T14:28:49;23.12;;;12.18;;
32872;SDS011;19224;52.462;16.898;2024-02-14T14:31:20;26.93;;;12.68;;
32872;SDS011;19224;52.462;16.898;2024-02-14T14:33:51;20.60;;;12.23;;
32872;SDS011;19224;52.462;16.898;2024-02-14T14:36:25;22.73;;;12.00;;